createdAt,value
2018-12-13T00:09:52.500Z,19.37
2018-12-13T00:20:07.666Z,18.63
2018-12-13T00:30:23.711Z,17.67
2018-12-13T00:40:38.540Z,18.53
2018-12-13T00:50:53.838Z,20.00
2018-12-13T01:01:09.082Z,19.20
2018-12-13T01:11:24.431Z,18.70
2018-12-13T01:21:40.365Z,19.40
2018-12-13T01:31:55.691Z,21.20
2018-12-13T01:42:11.351Z,20.80
2018-12-13T01:52:26.054Z,20.90
2018-12-13T02:02:41.516Z,23.17
2018-12-13T02:12:57.153Z,22.23
2018-12-13T02:23:12.923Z,20.52
2018-12-13T02:33:28.278Z,21.77
2018-12-13T02:43:43.497Z,19.98
2018-12-13T02:53:58.430Z,19.93
2018-12-13T03:04:13.924Z,19.47
2018-12-13T03:14:29.541Z,20.27
2018-12-13T03:24:45.585Z,18.53
2018-12-13T03:35:00.540Z,19.00
2018-12-13T03:45:16.055Z,18.20
2018-12-13T03:55:31.640Z,17.73
2018-12-13T04:05:47.032Z,18.27
2018-12-13T04:16:02.818Z,19.10
2018-12-13T04:26:18.450Z,20.00
2018-12-13T04:36:34.001Z,20.67
2018-12-13T04:46:49.403Z,21.50
2018-12-13T04:57:05.040Z,21.50
2018-12-13T05:07:20.677Z,22.43
2018-12-13T05:17:36.470Z,23.47
2018-12-13T05:27:52.188Z,22.93
2018-12-13T05:38:07.883Z,22.50
2018-12-13T05:48:23.620Z,22.00
2018-12-13T05:58:39.030Z,22.63
2018-12-13T06:08:54.700Z,21.30
2018-12-13T06:19:10.246Z,20.30
2018-12-13T06:29:25.607Z,21.07
2018-12-13T06:39:40.277Z,19.87
2018-12-13T06:49:56.655Z,20.27
2018-12-13T07:00:11.825Z,19.73
2018-12-13T07:10:26.694Z,19.07
2018-12-13T07:20:42.241Z,19.30
2018-12-13T07:30:58.044Z,17.93
2018-12-13T07:41:13.356Z,16.90
2018-12-13T07:51:28.158Z,16.90
2018-12-13T08:01:44.572Z,16.90
2018-12-13T08:11:59.474Z,17.03
2018-12-13T08:22:14.614Z,17.27
2018-12-13T08:32:30.101Z,17.27
2018-12-13T08:42:45.535Z,16.87
2018-12-13T08:53:00.314Z,16.30
2018-12-13T09:03:15.652Z,14.60
2018-12-13T09:13:31.114Z,15.53
2018-12-13T09:23:46.652Z,15.37
2018-12-13T09:34:01.858Z,14.87
2018-12-13T09:44:17.497Z,13.70
2018-12-13T09:54:32.725Z,14.03
2018-12-13T10:04:48.243Z,14.00
2018-12-13T10:15:04.318Z,12.83
2018-12-13T10:25:19.295Z,13.20
2018-12-13T10:35:34.075Z,12.40
2018-12-13T10:45:50.639Z,11.90
2018-12-13T10:56:05.860Z,12.47
2018-12-13T11:06:21.351Z,12.27
2018-12-13T11:16:36.703Z,11.80
2018-12-13T11:26:52.089Z,10.33
2018-12-13T11:37:07.535Z,10.80
2018-12-13T11:47:22.770Z,9.60
2018-12-13T11:57:37.904Z,9.90
2018-12-13T12:07:53.451Z,10.20
2018-12-13T12:18:08.629Z,11.00
2018-12-13T12:28:24.653Z,9.93
2018-12-13T12:38:39.559Z,10.57
2018-12-13T12:48:55.139Z,9.97
2018-12-13T12:59:10.471Z,10.00
2018-12-13T13:09:26.107Z,9.37
2018-12-13T13:19:41.389Z,10.07
2018-12-13T13:29:56.793Z,10.73
2018-12-13T13:40:12.477Z,9.60
2018-12-13T13:50:27.856Z,9.83
2018-12-13T14:00:43.180Z,10.03
2018-12-13T14:10:58.757Z,10.77
2018-12-13T14:21:13.717Z,10.47
2018-12-13T14:31:28.766Z,11.20
2018-12-13T14:41:44.373Z,10.30
2018-12-13T14:51:59.728Z,11.27
2018-12-13T15:02:15.214Z,11.13
2018-12-13T15:12:30.696Z,10.43
2018-12-13T15:22:45.571Z,11.60
2018-12-13T15:33:01.023Z,11.17
2018-12-13T15:43:16.394Z,14.83
2018-12-13T15:53:31.608Z,12.40
2018-12-13T16:03:48.476Z,14.70
2018-12-13T16:14:04.573Z,14.27
2018-12-13T16:24:19.737Z,15.53
2018-12-13T16:34:35.266Z,14.70
2018-12-13T16:44:50.933Z,13.47
2018-12-13T16:55:05.580Z,13.03
2018-12-13T17:05:20.872Z,13.07
2018-12-13T17:15:36.991Z,13.53
2018-12-13T17:25:52.791Z,14.57
2018-12-13T17:36:08.243Z,14.33
2018-12-13T17:46:23.640Z,14.43
2018-12-13T17:56:39.047Z,13.67
2018-12-13T18:06:54.185Z,14.33
2018-12-13T18:17:09.484Z,12.68
2018-12-13T18:27:24.937Z,13.73
2018-12-13T18:37:40.562Z,13.97
2018-12-13T18:47:56.061Z,15.47
2018-12-13T18:58:10.786Z,15.63
2018-12-13T19:08:26.460Z,13.67
2018-12-13T19:18:41.301Z,15.27
2018-12-13T19:28:57.661Z,15.87
2018-12-13T19:39:13.095Z,16.67
2018-12-13T19:49:28.519Z,16.63
2018-12-13T19:59:43.722Z,19.13
2018-12-13T20:09:59.466Z,14.80
2018-12-13T20:20:14.783Z,13.78
2018-12-13T20:30:30.562Z,13.03
2018-12-13T20:40:45.970Z,13.17
2018-12-13T20:51:01.270Z,13.53
2018-12-13T21:01:16.188Z,12.73
2018-12-13T21:11:31.820Z,13.30
2018-12-13T21:21:46.790Z,13.27
2018-12-13T21:32:02.393Z,14.27
2018-12-13T21:42:18.019Z,15.03
2018-12-13T21:52:33.397Z,14.07
2018-12-13T22:02:49.069Z,15.57
2018-12-13T22:13:04.555Z,15.93
2018-12-13T22:23:20.296Z,16.47
2018-12-13T22:33:35.789Z,16.83
2018-12-13T22:43:51.433Z,16.80
2018-12-13T22:54:06.902Z,16.32
2018-12-13T23:04:22.308Z,16.57
2018-12-13T23:14:37.868Z,16.20
2018-12-13T23:24:52.782Z,16.53
2018-12-13T23:35:08.686Z,17.60
2018-12-13T23:45:23.748Z,18.37
2018-12-13T23:55:40.376Z,19.10
